createdAt,value
2023-05-17T00:02:48.922Z,15.84
2023-05-17T00:05:54.536Z,16.00
2023-05-17T00:08:58.663Z,16.01
2023-05-17T00:12:02.708Z,15.69
2023-05-17T00:15:07.939Z,15.74
2023-05-17T00:18:12.106Z,15.76
2023-05-17T00:21:17.715Z,15.57
2023-05-17T00:24:21.711Z,15.34
2023-05-17T00:27:25.784Z,15.30
2023-05-17T00:30:29.877Z,15.14
2023-05-17T00:33:33.818Z,15.17
2023-05-17T00:36:39.269Z,15.24
2023-05-17T00:39:43.197Z,15.23
2023-05-17T00:42:47.248Z,15.51
2023-05-17T00:45:52.197Z,15.13
2023-05-17T00:48:57.627Z,15.27
2023-05-17T00:52:03.557Z,15.22
2023-05-17T00:55:08.358Z,15.16
2023-05-17T00:58:13.090Z,14.96
2023-05-17T01:01:17.212Z,15.17
2023-05-17T01:04:21.786Z,15.03
2023-05-17T01:07:27.349Z,15.26
2023-05-17T01:10:39.390Z,15.35
2023-05-17T01:13:53.951Z,15.48
2023-05-17T01:17:01.354Z,15.56
2023-05-17T01:20:11.140Z,15.34
2023-05-17T01:23:32.576Z,15.56
2023-05-17T01:26:44.368Z,15.09
2023-05-17T01:29:51.576Z,14.94
2023-05-17T01:32:59.281Z,15.25
2023-05-17T01:36:03.685Z,15.18
2023-05-17T01:39:08.991Z,15.12
2023-05-17T01:42:22.341Z,15.39
2023-05-17T01:45:30.321Z,15.54
2023-05-17T01:48:41.608Z,15.63
2023-05-17T01:51:50.434Z,15.68
2023-05-17T01:55:01.097Z,15.64
2023-05-17T01:58:09.228Z,15.86
2023-05-17T02:01:15.076Z,15.65
2023-05-17T02:04:20.932Z,15.91
2023-05-17T02:07:25.067Z,16.10
2023-05-17T02:10:32.483Z,16.10
2023-05-17T02:13:38.020Z,16.23
2023-05-17T02:16:42.100Z,16.18
2023-05-17T02:19:46.136Z,16.25
2023-05-17T02:22:50.276Z,16.33
2023-05-17T02:25:54.091Z,16.40
2023-05-17T02:28:59.791Z,16.46
2023-05-17T02:32:03.821Z,16.45
2023-05-17T02:35:08.773Z,16.40
2023-05-17T02:38:12.737Z,16.31
2023-05-17T02:41:18.435Z,16.36
2023-05-17T02:44:26.277Z,16.31
2023-05-17T02:47:30.537Z,16.21
2023-05-17T02:50:34.677Z,16.25
2023-05-17T02:53:38.935Z,16.27
2023-05-17T02:56:44.567Z,16.22
2023-05-17T02:59:50.342Z,16.14
2023-05-17T03:02:54.427Z,16.12
2023-05-17T03:06:02.756Z,16.24
2023-05-17T03:09:07.334Z,15.93
2023-05-17T03:12:12.037Z,16.09
2023-05-17T03:15:18.269Z,16.18
2023-05-17T03:18:23.109Z,15.87
2023-05-17T03:21:27.734Z,15.49
2023-05-17T03:24:32.723Z,15.79
2023-05-17T03:27:38.003Z,15.53
2023-05-17T03:30:44.330Z,15.51
2023-05-17T03:33:48.691Z,15.52
2023-05-17T03:36:52.574Z,15.45
2023-05-17T03:39:56.233Z,15.65
2023-05-17T03:43:00.603Z,15.57
2023-05-17T03:46:06.674Z,15.93
2023-05-17T03:49:10.787Z,15.85
2023-05-17T03:52:15.536Z,15.76
2023-05-17T03:55:19.435Z,15.94
2023-05-17T03:58:23.733Z,15.72
2023-05-17T04:01:29.112Z,15.76
2023-05-17T04:04:33.171Z,15.97
2023-05-17T04:07:37.187Z,16.14
2023-05-17T04:10:42.488Z,16.01
2023-05-17T04:13:46.541Z,16.11
2023-05-17T04:16:52.054Z,16.15
2023-05-17T04:19:56.534Z,16.34
2023-05-17T04:23:01.141Z,16.11
2023-05-17T04:26:07.807Z,16.36
2023-05-17T04:29:15.915Z,16.31
2023-05-17T04:32:21.742Z,16.52
2023-05-17T04:35:26.074Z,16.29
2023-05-17T04:38:32.033Z,16.34
2023-05-17T04:41:36.370Z,16.38
2023-05-17T04:44:42.796Z,16.44
2023-05-17T04:47:50.719Z,16.42
2023-05-17T04:50:55.131Z,16.23
2023-05-17T04:54:01.296Z,16.28
2023-05-17T04:57:07.716Z,16.58
2023-05-17T05:00:34.828Z,16.97
2023-05-17T05:03:43.057Z,16.85
2023-05-17T05:06:49.021Z,16.85
2023-05-17T05:09:53.414Z,16.95
2023-05-17T05:12:59.727Z,17.05
2023-05-17T05:16:05.527Z,17.27
2023-05-17T05:19:11.439Z,17.33
2023-05-17T05:22:16.354Z,17.41
2023-05-17T05:25:21.693Z,17.58
2023-05-17T05:28:25.949Z,17.64
2023-05-17T05:31:31.009Z,17.71
2023-05-17T05:34:40.251Z,17.70
2023-05-17T05:37:44.774Z,17.89
2023-05-17T05:40:49.674Z,17.87
2023-05-17T05:43:53.727Z,17.83
2023-05-17T05:46:57.792Z,17.85
2023-05-17T05:50:06.269Z,17.67
2023-05-17T05:53:18.834Z,17.51
2023-05-17T05:56:28.569Z,17.74
2023-05-17T05:59:32.815Z,17.55
2023-05-17T06:02:37.783Z,17.36
2023-05-17T06:05:43.530Z,17.67
2023-05-17T06:08:47.815Z,17.90
2023-05-17T06:11:54.991Z,18.20
2023-05-17T06:14:59.037Z,18.23
2023-05-17T06:18:03.143Z,18.16
2023-05-17T06:21:08.783Z,18.17
2023-05-17T06:24:12.816Z,18.29
2023-05-17T06:27:16.826Z,18.26
2023-05-17T06:30:21.027Z,18.59
2023-05-17T06:33:25.186Z,18.50
2023-05-17T06:36:32.534Z,18.53
2023-05-17T06:39:36.984Z,18.62
2023-05-17T06:42:41.293Z,18.65
2023-05-17T06:45:45.288Z,18.62
2023-05-17T06:48:51.225Z,18.87
2023-05-17T06:52:02.893Z,18.85
2023-05-17T06:55:07.868Z,19.03
2023-05-17T06:58:12.112Z,19.06
2023-05-17T07:01:16.143Z,18.71
2023-05-17T07:04:20.726Z,18.57
2023-05-17T07:07:26.446Z,18.68
2023-05-17T07:10:30.852Z,18.63
2023-05-17T07:13:35.213Z,18.44
2023-05-17T07:16:39.231Z,18.22
2023-05-17T07:19:43.407Z,18.30
2023-05-17T07:22:49.555Z,18.22
2023-05-17T07:25:53.619Z,18.23
2023-05-17T07:28:57.997Z,18.16
2023-05-17T07:32:01.994Z,18.25
2023-05-17T07:35:06.318Z,18.31
2023-05-17T07:38:12.194Z,18.33
2023-05-17T07:41:17.392Z,18.03
2023-05-17T07:44:22.036Z,17.98
2023-05-17T07:47:26.256Z,18.05
2023-05-17T07:50:31.051Z,18.03
2023-05-17T07:53:36.607Z,17.83
2023-05-17T07:56:40.767Z,17.73
2023-05-17T07:59:44.777Z,17.86
2023-05-17T08:02:48.838Z,17.96
2023-05-17T08:05:52.890Z,17.92
2023-05-17T08:08:58.632Z,17.99
2023-05-17T08:12:02.938Z,18.03
2023-05-17T08:15:07.984Z,17.93
2023-05-17T08:18:12.277Z,17.94
2023-05-17T08:21:16.398Z,18.04
2023-05-17T08:24:21.834Z,18.00
2023-05-17T08:27:27.292Z,17.85
2023-05-17T08:30:31.855Z,17.86
2023-05-17T08:33:36.931Z,17.85
2023-05-17T08:36:41.001Z,17.80
2023-05-17T08:39:46.767Z,17.84
2023-05-17T08:42:52.209Z,17.83
2023-05-17T08:45:58.151Z,17.74
2023-05-17T08:49:04.734Z,17.94
2023-05-17T08:52:11.593Z,17.80
2023-05-17T08:55:18.511Z,17.85
2023-05-17T08:58:27.627Z,17.81
2023-05-17T09:01:33.230Z,17.74
2023-05-17T09:04:38.150Z,17.72
2023-05-17T09:07:42.667Z,17.69
2023-05-17T09:10:48.269Z,17.46
2023-05-17T09:13:52.476Z,17.37
2023-05-17T09:16:58.862Z,17.36
2023-05-17T09:20:03.114Z,17.36
2023-05-17T09:23:09.996Z,17.31
2023-05-17T09:26:15.846Z,17.28
2023-05-17T09:29:21.268Z,17.33
2023-05-17T09:32:25.499Z,17.32
2023-05-17T09:35:31.049Z,17.31
2023-05-17T09:38:35.309Z,17.24
2023-05-17T09:41:47.358Z,17.34
2023-05-17T09:44:54.889Z,17.27
2023-05-17T09:47:59.596Z,17.14
2023-05-17T09:51:03.817Z,17.15
2023-05-17T09:54:08.697Z,17.25
2023-05-17T09:57:14.433Z,17.11
2023-05-17T10:00:19.976Z,16.93
2023-05-17T10:03:24.267Z,17.13
2023-05-17T10:06:44.756Z,17.04
2023-05-17T10:09:51.733Z,17.24
2023-05-17T10:12:57.730Z,17.51
2023-05-17T10:16:03.552Z,17.70
2023-05-17T10:19:08.190Z,17.36
2023-05-17T10:25:23.809Z,17.22
2023-05-17T10:28:29.914Z,17.75
2023-05-17T10:31:35.054Z,17.82
2023-05-17T10:34:40.661Z,17.78
2023-05-17T10:37:44.780Z,17.89
2023-05-17T10:40:50.114Z,17.96
2023-05-17T10:43:57.144Z,17.92
2023-05-17T10:47:02.249Z,17.98
2023-05-17T10:50:13.526Z,17.98
2023-05-17T10:53:17.589Z,17.89
2023-05-17T10:56:23.789Z,17.67
2023-05-17T10:59:32.355Z,17.55
2023-05-17T11:02:41.776Z,17.37
2023-05-17T11:05:48.107Z,17.59
2023-05-17T11:09:15.801Z,17.30
2023-05-17T11:12:32.117Z,17.26
2023-05-17T11:15:39.089Z,17.29
2023-05-17T11:18:49.157Z,17.48
2023-05-17T11:21:53.335Z,17.71
2023-05-17T11:24:59.150Z,17.86
2023-05-17T11:28:09.277Z,17.87
2023-05-17T11:31:14.831Z,17.99
2023-05-17T11:34:20.274Z,17.98
2023-05-17T11:37:28.656Z,18.01
2023-05-17T11:40:33.828Z,17.98
2023-05-17T11:43:38.551Z,17.77
2023-05-17T11:46:45.335Z,17.74
2023-05-17T11:49:54.358Z,17.81
2023-05-17T11:53:00.530Z,17.91
2023-05-17T11:56:05.792Z,17.90
2023-05-17T11:59:10.028Z,17.95
2023-05-17T12:02:28.720Z,17.56
2023-05-17T12:05:32.898Z,17.45
2023-05-17T12:08:38.234Z,17.28
2023-05-17T12:11:43.700Z,17.54
2023-05-17T12:14:48.614Z,17.67
2023-05-17T12:17:56.861Z,17.72
2023-05-17T12:21:01.777Z,17.80
2023-05-17T12:24:06.340Z,17.74
2023-05-17T12:27:10.795Z,17.74
2023-05-17T12:30:18.569Z,17.79
2023-05-17T12:33:24.081Z,18.00
2023-05-17T12:36:30.754Z,18.02
2023-05-17T12:39:34.791Z,17.94
2023-05-17T12:42:41.171Z,17.90
2023-05-17T12:45:45.340Z,17.95
2023-05-17T12:48:52.277Z,17.79
2023-05-17T12:51:56.372Z,17.58
2023-05-17T12:55:01.133Z,17.73
2023-05-17T12:58:05.980Z,17.93
2023-05-17T13:01:14.090Z,18.07
2023-05-17T13:04:20.704Z,17.86
2023-05-17T13:07:26.181Z,18.03
2023-05-17T13:10:30.759Z,17.87
2023-05-17T13:13:35.560Z,18.01
2023-05-17T13:16:40.176Z,18.21
2023-05-17T13:19:45.845Z,18.02
2023-05-17T13:22:50.314Z,17.93
2023-05-17T13:25:54.764Z,17.90
2023-05-17T13:28:58.838Z,17.94
2023-05-17T13:32:03.241Z,18.06
2023-05-17T13:35:09.783Z,18.29
2023-05-17T13:38:13.792Z,18.35
2023-05-17T13:41:17.919Z,18.34
2023-05-17T13:44:22.070Z,18.14
2023-05-17T13:47:26.625Z,18.06
2023-05-17T13:50:32.263Z,18.09
2023-05-17T13:53:36.576Z,18.10
2023-05-17T13:56:40.614Z,18.10
2023-05-17T13:59:45.957Z,17.94
2023-05-17T14:02:50.434Z,17.82
2023-05-17T14:05:56.054Z,17.83
2023-05-17T14:09:01.237Z,17.76
2023-05-17T14:12:05.906Z,17.71
2023-05-17T14:15:11.636Z,17.77
2023-05-17T14:18:15.868Z,17.56
2023-05-17T14:21:21.601Z,17.69
2023-05-17T14:24:25.815Z,17.91
2023-05-17T14:27:29.964Z,18.02
2023-05-17T14:30:34.611Z,17.97
2023-05-17T14:33:38.803Z,17.86
2023-05-17T14:36:44.365Z,17.67
2023-05-17T14:40:05.325Z,17.75
2023-05-17T14:43:10.950Z,17.84
2023-05-17T14:46:15.137Z,17.94
2023-05-17T14:49:19.241Z,17.94
2023-05-17T14:52:24.878Z,17.94
2023-05-17T14:55:29.115Z,17.70
2023-05-17T14:58:33.383Z,17.64
2023-05-17T15:01:37.488Z,17.64
2023-05-17T15:04:41.956Z,17.62
2023-05-17T15:07:47.791Z,17.59
2023-05-17T15:10:52.190Z,17.49
2023-05-17T15:13:56.738Z,17.61
2023-05-17T15:17:00.803Z,17.61
2023-05-17T15:20:05.364Z,17.62
2023-05-17T15:23:11.051Z,17.74
2023-05-17T15:26:15.049Z,17.68
2023-05-17T15:29:19.136Z,17.32
2023-05-17T15:32:23.256Z,17.53
2023-05-17T15:35:28.223Z,17.54
2023-05-17T15:38:33.801Z,17.74
2023-05-17T15:41:37.878Z,17.82
2023-05-17T15:44:41.893Z,17.94
2023-05-17T15:47:46.669Z,18.02
2023-05-17T15:50:50.932Z,18.02
2023-05-17T15:53:57.463Z,18.04
2023-05-17T15:57:01.512Z,17.92
2023-05-17T16:00:06.572Z,17.87
2023-05-17T16:03:10.700Z,17.85
2023-05-17T16:06:16.046Z,17.99
2023-05-17T16:09:21.711Z,18.02
2023-05-17T16:12:25.840Z,17.98
2023-05-17T16:15:29.997Z,17.98
2023-05-17T16:18:34.455Z,17.95
2023-05-17T16:21:39.297Z,18.06
2023-05-17T16:24:44.746Z,17.99
2023-05-17T16:27:49.560Z,18.01
2023-05-17T16:30:54.742Z,17.94
2023-05-17T16:33:58.954Z,17.87
2023-05-17T16:37:04.420Z,17.88
2023-05-17T16:40:11.239Z,17.79
2023-05-17T16:43:16.563Z,17.89
2023-05-17T16:46:24.996Z,17.78
2023-05-17T16:49:30.537Z,17.87
2023-05-17T16:52:34.503Z,17.89
2023-05-17T16:55:40.183Z,17.85
2023-05-17T16:58:44.279Z,17.92
2023-05-17T17:01:48.308Z,17.98
2023-05-17T17:04:52.591Z,17.69
2023-05-17T17:07:56.817Z,17.76
2023-05-17T17:11:02.315Z,17.73
2023-05-17T17:14:07.188Z,17.74
2023-05-17T17:17:11.250Z,17.57
2023-05-17T17:20:15.557Z,17.71
2023-05-17T17:23:19.613Z,17.50
2023-05-17T17:26:25.145Z,17.49
2023-05-17T17:29:29.233Z,17.60
2023-05-17T17:32:33.471Z,17.53
2023-05-17T17:35:37.618Z,17.62
2023-05-17T17:38:41.734Z,17.45
2023-05-17T17:41:47.268Z,17.58
2023-05-17T17:44:51.444Z,17.61
2023-05-17T17:47:55.588Z,17.52
2023-05-17T17:50:59.715Z,17.58
2023-05-17T17:54:05.873Z,17.55
2023-05-17T17:57:11.400Z,17.62
2023-05-17T18:00:16.541Z,17.64
2023-05-17T18:03:20.604Z,17.56
2023-05-17T18:06:25.109Z,17.67
2023-05-17T18:09:29.128Z,17.66
2023-05-17T18:12:34.816Z,17.68
2023-05-17T18:15:40.312Z,17.70
2023-05-17T18:18:44.662Z,17.67
2023-05-17T18:21:50.585Z,17.67
2023-05-17T18:24:54.716Z,17.65
2023-05-17T18:28:00.227Z,17.61
2023-05-17T18:31:04.311Z,17.63
2023-05-17T18:34:08.400Z,17.65
2023-05-17T18:37:12.420Z,17.68
2023-05-17T18:40:16.838Z,17.59
2023-05-17T18:43:22.335Z,17.65
2023-05-17T18:46:26.569Z,17.53
2023-05-17T18:49:30.589Z,17.49
2023-05-17T18:52:34.751Z,17.50
2023-05-17T18:55:38.855Z,17.50
2023-05-17T18:58:46.197Z,17.60
2023-05-17T19:01:50.704Z,17.60
2023-05-17T19:04:54.734Z,17.41
2023-05-17T19:07:58.776Z,17.41
2023-05-17T19:11:04.419Z,17.30
2023-05-17T19:14:09.854Z,17.23
2023-05-17T19:17:14.130Z,17.37
2023-05-17T19:20:18.338Z,17.39
2023-05-17T19:23:23.079Z,17.29
2023-05-17T19:26:27.260Z,17.27
2023-05-17T19:29:33.369Z,17.08
2023-05-17T19:32:38.461Z,16.92
2023-05-17T19:35:42.625Z,16.98
2023-05-17T19:38:46.714Z,16.84
2023-05-17T19:41:50.983Z,16.82
2023-05-17T19:44:56.520Z,16.83
2023-05-17T19:48:00.690Z,16.81
2023-05-17T19:51:04.922Z,16.93
2023-05-17T19:54:08.924Z,16.87
2023-05-17T19:57:13.010Z,16.78
2023-05-17T20:00:19.402Z,16.79
2023-05-17T20:03:23.494Z,16.96
2023-05-17T20:06:27.653Z,16.90
2023-05-17T20:09:32.442Z,16.78
2023-05-17T20:12:36.539Z,16.73
2023-05-17T20:15:42.179Z,16.65
2023-05-17T20:18:46.870Z,16.76
2023-05-17T20:21:50.930Z,16.74
2023-05-17T20:24:57.174Z,16.61
2023-05-17T20:28:02.110Z,16.64
2023-05-17T20:31:07.660Z,16.62
2023-05-17T20:34:12.276Z,16.76
2023-05-17T20:37:16.407Z,16.73
2023-05-17T20:40:21.226Z,16.79
2023-05-17T20:43:29.117Z,16.83
2023-05-17T20:46:35.764Z,16.64
2023-05-17T20:49:40.026Z,16.63
2023-05-17T20:52:44.169Z,16.58
2023-05-17T20:55:48.154Z,16.69
2023-05-17T20:58:52.191Z,16.41
2023-05-17T21:01:57.964Z,16.39
2023-05-17T21:05:03.642Z,16.41
2023-05-17T21:08:08.833Z,16.31
2023-05-17T21:11:15.559Z,16.26
2023-05-17T21:14:19.630Z,16.11
2023-05-17T21:17:25.171Z,16.10
2023-05-17T21:20:29.429Z,16.06
2023-05-17T21:23:33.589Z,16.05
2023-05-17T21:26:40.562Z,16.14
2023-05-17T21:29:45.389Z,16.21
2023-05-17T21:32:50.963Z,16.07
2023-05-17T21:35:55.077Z,16.06
2023-05-17T21:38:59.039Z,16.37
2023-05-17T21:42:03.470Z,16.31
2023-05-17T21:45:08.614Z,16.27
2023-05-17T21:48:14.279Z,16.48
2023-05-17T21:51:18.388Z,16.43
2023-05-17T21:54:22.514Z,16.47
2023-05-17T21:57:26.589Z,16.45
2023-05-17T22:00:30.959Z,16.32
2023-05-17T22:03:36.853Z,16.13
2023-05-17T22:06:40.970Z,16.39
2023-05-17T22:09:45.896Z,16.36
2023-05-17T22:12:50.557Z,16.40
2023-05-17T22:15:57.818Z,16.57
2023-05-17T22:19:04.175Z,16.40
2023-05-17T22:22:08.785Z,16.56
2023-05-17T22:25:13.572Z,16.43
2023-05-17T22:28:18.888Z,16.41
2023-05-17T22:31:23.132Z,16.31
2023-05-17T22:34:28.794Z,16.32
2023-05-17T22:37:33.191Z,16.34
2023-05-17T22:40:37.414Z,16.44
2023-05-17T22:43:42.061Z,16.40
2023-05-17T22:46:47.002Z,16.26
2023-05-17T22:49:53.279Z,16.27
2023-05-17T22:52:58.951Z,16.47
2023-05-17T22:56:02.894Z,16.44
2023-05-17T22:59:06.890Z,16.38
2023-05-17T23:02:11.150Z,16.44
2023-05-17T23:05:16.652Z,16.47
2023-05-17T23:08:22.661Z,16.59
2023-05-17T23:11:26.611Z,16.56
2023-05-17T23:14:30.597Z,16.63
2023-05-17T23:17:35.969Z,16.65
2023-05-17T23:20:42.433Z,16.57
2023-05-17T23:23:47.651Z,16.40
2023-05-17T23:26:51.587Z,16.45
2023-05-17T23:29:56.768Z,16.52
2023-05-17T23:33:02.919Z,16.60
2023-05-17T23:36:09.209Z,16.64
2023-05-17T23:39:13.234Z,16.67
2023-05-17T23:42:17.158Z,16.58
2023-05-17T23:45:21.541Z,16.64
2023-05-17T23:48:25.981Z,16.76
2023-05-17T23:51:33.528Z,16.76
2023-05-17T23:54:37.553Z,16.73
2023-05-17T23:57:42.716Z,16.69
